createdAt,value
2022-11-15T00:00:11.818Z,7.84
2022-11-15T00:03:19.841Z,7.67
2022-11-15T00:06:26.100Z,7.74
2022-11-15T00:09:32.124Z,7.76
2022-11-15T00:12:38.375Z,7.80
2022-11-15T00:15:44.487Z,7.80
2022-11-15T00:18:51.134Z,7.75
2022-11-15T00:21:57.322Z,7.75
2022-11-15T00:25:04.617Z,7.73
2022-11-15T00:28:10.610Z,7.80
2022-11-15T00:31:16.957Z,7.88
2022-11-15T00:34:23.028Z,7.85
2022-11-15T00:37:28.872Z,7.84
2022-11-15T00:40:35.147Z,7.87
2022-11-15T00:43:43.360Z,7.80
2022-11-15T00:46:49.332Z,7.83
2022-11-15T00:49:55.695Z,7.79
2022-11-15T00:53:02.042Z,7.71
2022-11-15T00:56:08.585Z,7.61
2022-11-15T00:59:17.048Z,7.59
2022-11-15T01:02:23.319Z,7.62
2022-11-15T01:05:31.716Z,7.59
2022-11-15T01:08:42.974Z,7.67
2022-11-15T01:11:48.967Z,7.68
2022-11-15T01:14:55.398Z,7.80
2022-11-15T01:18:01.834Z,7.72
2022-11-15T01:21:17.912Z,7.86
2022-11-15T01:24:23.877Z,7.87
2022-11-15T01:27:29.787Z,7.80
2022-11-15T01:30:37.359Z,7.78
2022-11-15T01:33:44.004Z,7.77
2022-11-15T01:36:50.459Z,7.72
2022-11-15T01:39:56.665Z,7.74
2022-11-15T01:43:23.433Z,7.63
2022-11-15T01:46:38.544Z,7.55
2022-11-15T01:50:00.681Z,7.59
2022-11-15T01:53:11.890Z,7.57
2022-11-15T01:56:25.761Z,7.62
2022-11-15T01:59:31.984Z,7.69
2022-11-15T02:02:39.205Z,7.56
2022-11-15T02:05:45.807Z,7.62
2022-11-15T02:08:52.872Z,7.67
2022-11-15T02:12:00.341Z,7.69
2022-11-15T02:15:08.745Z,7.67
2022-11-15T02:18:29.298Z,7.71
2022-11-15T02:21:44.936Z,7.55
2022-11-15T02:25:27.504Z,7.67
2022-11-15T02:28:39.442Z,7.68
2022-11-15T02:31:51.328Z,7.71
2022-11-15T02:35:09.250Z,7.68
2022-11-15T02:38:29.281Z,7.64
2022-11-15T02:41:48.511Z,7.64
2022-11-15T02:44:58.538Z,7.47
2022-11-15T02:48:07.392Z,7.56
2022-11-15T02:51:14.896Z,7.60
2022-11-15T02:54:24.512Z,7.48
2022-11-15T02:57:53.906Z,7.57
2022-11-15T03:01:23.373Z,7.53
2022-11-15T03:04:50.210Z,7.52
2022-11-15T03:08:02.771Z,7.48
2022-11-15T03:11:10.891Z,7.41
2022-11-15T03:14:22.506Z,7.38
2022-11-15T03:17:42.448Z,7.50
2022-11-15T03:20:50.395Z,7.43
2022-11-15T03:23:58.398Z,7.48
2022-11-15T03:27:08.086Z,7.50
2022-11-15T03:30:15.027Z,7.52
2022-11-15T03:33:23.183Z,7.50
2022-11-15T03:36:32.648Z,7.50
2022-11-15T03:39:38.644Z,7.54
2022-11-15T03:42:50.086Z,7.36
2022-11-15T03:46:12.845Z,7.55
2022-11-15T03:49:29.274Z,7.51
2022-11-15T03:52:36.131Z,7.45
2022-11-15T03:55:42.465Z,7.24
2022-11-15T03:58:48.760Z,7.43
2022-11-15T04:02:13.371Z,7.39
2022-11-15T04:05:19.789Z,7.40
2022-11-15T04:08:25.897Z,7.44
2022-11-15T04:11:32.297Z,7.42
2022-11-15T04:14:38.396Z,7.60
2022-11-15T04:17:48.080Z,7.58
2022-11-15T04:21:12.721Z,7.55
2022-11-15T04:24:18.858Z,7.48
2022-11-15T04:27:25.334Z,7.42
2022-11-15T04:30:31.596Z,7.45
2022-11-15T04:33:37.844Z,7.49
2022-11-15T04:37:02.394Z,7.51
2022-11-15T04:40:09.276Z,7.48
2022-11-15T04:43:15.459Z,7.43
2022-11-15T04:46:24.856Z,7.38
2022-11-15T04:49:31.230Z,7.41
2022-11-15T04:52:37.516Z,7.45
2022-11-15T04:55:47.254Z,7.54
2022-11-15T04:58:53.756Z,7.55
2022-11-15T05:02:00.250Z,7.54
2022-11-15T05:05:06.833Z,7.49
2022-11-15T05:08:14.878Z,7.55
2022-11-15T05:11:24.308Z,7.51
2022-11-15T05:14:30.575Z,7.48
2022-11-15T05:17:36.876Z,7.51
2022-11-15T05:20:43.272Z,7.52
2022-11-15T05:23:49.713Z,7.52
2022-11-15T05:26:56.072Z,7.49
2022-11-15T05:30:02.009Z,7.49
2022-11-15T05:33:08.332Z,7.44
2022-11-15T05:36:26.850Z,7.31
2022-11-15T05:39:35.571Z,7.48
2022-11-15T05:42:41.791Z,7.47
2022-11-15T05:45:48.530Z,7.50
2022-11-15T05:48:56.959Z,7.47
2022-11-15T05:52:08.227Z,7.47
2022-11-15T05:55:15.091Z,7.50
2022-11-15T05:58:21.895Z,7.51
2022-11-15T06:01:29.425Z,7.35
2022-11-15T06:04:35.337Z,7.42
2022-11-15T06:07:41.296Z,7.49
2022-11-15T06:10:47.678Z,7.40
2022-11-15T06:13:55.909Z,7.29
2022-11-15T06:17:05.974Z,7.56
2022-11-15T06:20:14.519Z,7.55
2022-11-15T06:23:20.869Z,7.56
2022-11-15T06:26:26.960Z,7.59
2022-11-15T06:29:33.190Z,7.64
2022-11-15T06:32:39.494Z,7.67
2022-11-15T06:35:45.646Z,7.57
2022-11-15T06:38:52.184Z,7.57
2022-11-15T06:41:58.637Z,7.52
2022-11-15T06:45:05.167Z,7.79
2022-11-15T06:48:11.566Z,7.58
2022-11-15T06:51:17.460Z,7.83
2022-11-15T06:54:23.729Z,7.88
2022-11-15T06:57:29.981Z,7.95
2022-11-15T07:00:40.744Z,7.96
2022-11-15T07:03:58.230Z,7.93
2022-11-15T07:07:11.686Z,8.00
2022-11-15T07:10:26.494Z,8.04
2022-11-15T07:13:36.741Z,8.05
2022-11-15T07:16:42.769Z,7.96
2022-11-15T07:19:49.138Z,7.97
2022-11-15T07:23:06.336Z,7.90
2022-11-15T07:26:12.652Z,7.93
2022-11-15T07:29:18.768Z,8.00
2022-11-15T07:32:25.000Z,8.12
2022-11-15T07:35:31.371Z,8.14
2022-11-15T07:38:42.417Z,8.16
2022-11-15T07:42:11.813Z,8.24
2022-11-15T07:45:17.924Z,8.22
2022-11-15T07:48:24.283Z,8.32
2022-11-15T07:51:30.707Z,8.23
2022-11-15T07:54:37.005Z,8.21
2022-11-15T07:57:43.506Z,8.09
2022-11-15T08:00:49.560Z,7.98
2022-11-15T08:03:58.052Z,7.99
2022-11-15T08:07:04.384Z,7.85
2022-11-15T08:10:10.666Z,8.06
2022-11-15T08:13:16.626Z,8.03
2022-11-15T08:16:22.730Z,8.11
2022-11-15T08:19:28.839Z,8.22
2022-11-15T08:22:35.195Z,8.13
2022-11-15T08:25:41.336Z,8.27
2022-11-15T08:28:47.249Z,8.37
2022-11-15T08:31:56.339Z,8.36
2022-11-15T08:35:02.231Z,8.42
2022-11-15T08:38:08.650Z,8.32
2022-11-15T08:41:37.048Z,8.27
2022-11-15T08:44:43.332Z,8.33
2022-11-15T08:47:53.969Z,8.44
2022-11-15T08:51:00.666Z,8.40
2022-11-15T08:54:06.769Z,8.44
2022-11-15T08:57:13.682Z,8.41
2022-11-15T09:00:21.134Z,8.49
2022-11-15T09:03:27.248Z,8.61
2022-11-15T09:06:33.296Z,8.66
2022-11-15T09:09:39.599Z,8.73
2022-11-15T09:12:46.453Z,8.60
2022-11-15T09:15:52.616Z,8.75
2022-11-15T09:18:58.928Z,8.82
2022-11-15T09:22:09.062Z,8.89
2022-11-15T09:25:15.372Z,8.79
2022-11-15T09:31:45.549Z,8.87
2022-11-15T09:34:51.762Z,8.88
2022-11-15T09:37:59.504Z,8.91
2022-11-15T09:41:14.214Z,8.81
2022-11-15T09:44:42.235Z,8.82
2022-11-15T09:48:04.637Z,8.88
2022-11-15T09:51:36.930Z,8.98
2022-11-15T09:57:48.724Z,9.05
2022-11-15T10:00:50.220Z,9.03
2022-11-15T10:03:43.237Z,8.98
2022-11-15T10:06:36.211Z,8.93
2022-11-15T10:09:31.591Z,9.03
2022-11-15T10:12:19.604Z,9.10
2022-11-15T10:15:16.143Z,9.23
2022-11-15T10:18:30.325Z,9.04
2022-11-15T10:21:47.192Z,8.82
2022-11-15T10:24:39.088Z,8.94
2022-11-15T10:27:26.779Z,9.01
2022-11-15T10:30:19.609Z,8.98
2022-11-15T10:33:37.672Z,8.93
2022-11-15T10:36:27.909Z,8.92
2022-11-15T10:42:28.186Z,8.98
2022-11-15T10:42:29.913Z,8.69
2022-11-15T10:45:44.331Z,9.06
2022-11-15T10:48:32.333Z,9.07
2022-11-15T10:51:29.460Z,8.87
2022-11-15T10:54:42.711Z,8.93
2022-11-15T10:57:34.337Z,8.91
2022-11-15T11:00:22.117Z,8.99
2022-11-15T11:03:36.815Z,8.92
2022-11-15T11:06:24.542Z,8.88
2022-11-15T11:09:23.022Z,9.13
2022-11-15T11:12:13.869Z,9.15
2022-11-15T11:15:10.735Z,9.22
2022-11-15T11:18:23.830Z,9.16
2022-11-15T11:21:16.483Z,8.96
2022-11-15T11:24:09.886Z,9.11
2022-11-15T11:27:32.770Z,9.10
2022-11-15T11:30:26.233Z,9.31
2022-11-15T11:33:26.154Z,9.25
2022-11-15T11:36:37.336Z,9.43
2022-11-15T11:39:34.459Z,9.39
2022-11-15T11:42:37.077Z,9.47
2022-11-15T11:45:51.783Z,9.18
2022-11-15T11:49:02.416Z,9.18
2022-11-15T11:52:23.211Z,9.06
2022-11-15T11:55:20.489Z,9.25
2022-11-15T11:58:35.465Z,9.26
2022-11-15T12:01:32.023Z,9.17
2022-11-15T12:04:30.953Z,9.19
2022-11-15T12:07:31.670Z,9.16
2022-11-15T12:10:31.136Z,9.28
2022-11-15T12:13:25.755Z,9.27
2022-11-15T12:16:23.828Z,9.22
2022-11-15T12:19:11.507Z,9.10
2022-11-15T12:22:10.184Z,9.21
2022-11-15T12:25:00.847Z,9.18
2022-11-15T12:27:51.848Z,9.13
2022-11-15T12:30:49.410Z,8.95
2022-11-15T12:33:43.899Z,8.99
2022-11-15T12:36:37.415Z,9.05
2022-11-15T12:40:07.830Z,9.01
2022-11-15T12:43:26.469Z,9.04
2022-11-15T12:46:21.752Z,9.06
2022-11-15T12:49:25.512Z,8.93
2022-11-15T12:52:13.270Z,8.95
2022-11-15T12:55:03.208Z,8.93
2022-11-15T12:57:51.029Z,8.92
2022-11-15T13:00:39.393Z,8.94
2022-11-15T13:03:29.037Z,8.97
2022-11-15T13:06:40.052Z,8.94
2022-11-15T13:09:33.703Z,8.98
2022-11-15T13:12:27.561Z,8.94
2022-11-15T13:15:15.866Z,8.88
2022-11-15T13:18:40.555Z,8.95
2022-11-15T13:21:46.565Z,8.93
2022-11-15T13:24:34.309Z,8.88
2022-11-15T13:27:22.259Z,8.93
2022-11-15T13:30:22.026Z,8.92
2022-11-15T13:33:15.886Z,8.98
2022-11-15T13:36:30.115Z,9.01
2022-11-15T13:39:35.052Z,8.96
2022-11-15T13:42:29.949Z,8.92
2022-11-15T13:45:20.017Z,8.93
2022-11-15T13:48:09.585Z,8.98
2022-11-15T13:50:59.063Z,8.87
2022-11-15T13:53:52.261Z,8.77
2022-11-15T13:56:44.296Z,8.76
2022-11-15T13:59:35.950Z,8.61
2022-11-15T14:02:31.309Z,8.69
2022-11-15T14:05:22.450Z,8.72
2022-11-15T14:08:22.904Z,8.67
2022-11-15T14:11:19.564Z,8.61
2022-11-15T14:14:10.744Z,8.45
2022-11-15T14:17:02.182Z,8.61
2022-11-15T14:19:49.914Z,8.65
2022-11-15T14:22:39.000Z,8.61
2022-11-15T14:25:29.025Z,8.48
2022-11-15T14:28:31.967Z,8.61
2022-11-15T14:31:22.155Z,8.56
2022-11-15T14:34:10.247Z,8.47
2022-11-15T14:36:58.001Z,8.62
2022-11-15T14:39:45.641Z,8.49
2022-11-15T14:42:33.670Z,8.51
2022-11-15T14:45:23.088Z,8.54
2022-11-15T14:48:13.127Z,8.42
2022-11-15T14:51:00.731Z,8.38
2022-11-15T14:53:51.854Z,8.27
2022-11-15T14:56:43.879Z,8.38
2022-11-15T14:59:31.596Z,8.36
2022-11-15T15:02:25.389Z,8.42
2022-11-15T15:05:22.072Z,8.43
2022-11-15T15:08:13.147Z,8.42
2022-11-15T15:11:00.942Z,8.28
2022-11-15T15:13:48.895Z,8.45
2022-11-15T15:16:39.429Z,8.41
2022-11-15T15:19:27.150Z,8.49
2022-11-15T15:22:18.133Z,8.27
2022-11-15T15:25:30.032Z,8.30
2022-11-15T15:28:17.693Z,8.24
2022-11-15T15:31:05.508Z,8.20
2022-11-15T15:33:53.172Z,8.22
2022-11-15T15:36:41.007Z,8.20
2022-11-15T15:39:28.712Z,8.22
2022-11-15T15:42:16.376Z,8.31
2022-11-15T15:45:04.296Z,8.36
2022-11-15T15:47:57.304Z,8.05
2022-11-15T15:50:46.325Z,8.25
2022-11-15T15:53:34.283Z,8.17
2022-11-15T15:56:21.984Z,8.23
2022-11-15T15:59:09.680Z,8.20
2022-11-15T16:01:57.410Z,8.22
2022-11-15T16:04:45.141Z,8.22
2022-11-15T16:07:33.236Z,8.16
2022-11-15T16:10:20.908Z,8.17
2022-11-15T16:13:08.743Z,8.13
2022-11-15T16:15:56.542Z,8.12
2022-11-15T16:18:44.288Z,8.17
2022-11-15T16:21:32.123Z,8.10
2022-11-15T16:24:24.359Z,8.17
2022-11-15T16:27:19.356Z,8.18
2022-11-15T16:30:16.335Z,7.79
2022-11-15T16:33:04.313Z,8.09
2022-11-15T16:35:54.758Z,8.03
2022-11-15T16:38:42.399Z,8.06
2022-11-15T16:41:34.653Z,8.04
2022-11-15T16:44:45.189Z,8.07
2022-11-15T16:47:32.881Z,8.07
2022-11-15T16:50:29.935Z,8.08
2022-11-15T16:53:17.914Z,8.07
2022-11-15T16:56:31.757Z,8.03
2022-11-15T16:59:21.165Z,7.59
2022-11-15T17:02:20.901Z,8.02
2022-11-15T17:05:11.745Z,8.03
2022-11-15T17:08:02.330Z,7.95
2022-11-15T17:10:53.570Z,7.92
2022-11-15T17:13:41.319Z,8.04
2022-11-15T17:16:29.162Z,8.09
2022-11-15T17:19:19.191Z,8.03
2022-11-15T17:22:06.976Z,7.97
2022-11-15T17:24:54.642Z,8.03
2022-11-15T17:27:42.583Z,8.07
2022-11-15T17:30:30.214Z,8.00
2022-11-15T17:33:17.936Z,8.00
2022-11-15T17:36:07.716Z,8.05
2022-11-15T17:38:59.304Z,8.10
2022-11-15T17:41:50.703Z,8.05
2022-11-15T17:44:40.908Z,7.97
2022-11-15T17:47:28.577Z,7.95
2022-11-15T17:50:18.009Z,7.87
2022-11-15T17:53:05.862Z,7.96
2022-11-15T17:55:54.124Z,7.85
2022-11-15T17:58:42.226Z,7.81
2022-11-15T18:01:32.367Z,7.87
2022-11-15T18:04:20.310Z,7.81
2022-11-15T18:07:08.111Z,7.84
2022-11-15T18:09:58.041Z,7.80
2022-11-15T18:12:45.814Z,7.84
2022-11-15T18:15:33.521Z,7.57
2022-11-15T18:18:21.281Z,7.83
2022-11-15T18:21:13.554Z,7.96
2022-11-15T18:24:02.403Z,7.91
2022-11-15T18:26:53.061Z,7.89
2022-11-15T18:29:46.911Z,7.82
2022-11-15T18:32:34.653Z,7.90
2022-11-15T18:35:22.295Z,7.97
2022-11-15T18:38:09.971Z,7.95
2022-11-15T18:40:59.805Z,7.95
2022-11-15T18:43:51.594Z,8.00
2022-11-15T18:46:40.312Z,7.93
2022-11-15T18:49:28.444Z,7.83
2022-11-15T18:52:20.125Z,7.96
2022-11-15T18:55:09.684Z,7.95
2022-11-15T18:58:00.038Z,7.88
2022-11-15T19:00:50.866Z,7.98
2022-11-15T19:03:41.635Z,7.83
2022-11-15T19:06:32.945Z,7.93
2022-11-15T19:09:21.027Z,7.83
2022-11-15T19:12:12.189Z,7.92
2022-11-15T19:14:59.931Z,7.89
2022-11-15T19:17:50.820Z,7.91
2022-11-15T19:20:38.684Z,7.93
2022-11-15T19:23:26.424Z,7.93
2022-11-15T19:26:16.103Z,7.89
2022-11-15T19:29:07.931Z,7.86
2022-11-15T19:31:55.648Z,7.93
2022-11-15T19:34:43.381Z,7.95
2022-11-15T19:37:31.223Z,7.93
2022-11-15T19:40:18.880Z,7.99
2022-11-15T19:43:07.104Z,7.90
2022-11-15T19:46:01.926Z,7.58
2022-11-15T19:48:51.357Z,7.71
2022-11-15T19:51:41.830Z,7.90
2022-11-15T19:54:29.559Z,7.70
2022-11-15T19:57:17.441Z,7.85
2022-11-15T20:00:07.528Z,7.79
2022-11-15T20:02:55.432Z,7.76
2022-11-15T20:05:43.808Z,7.79
2022-11-15T20:08:33.058Z,7.84
2022-11-15T20:11:21.714Z,7.87
2022-11-15T20:14:11.805Z,7.78
2022-11-15T20:16:59.683Z,7.84
2022-11-15T20:19:47.378Z,7.83
2022-11-15T20:22:35.059Z,7.74
2022-11-15T20:25:22.733Z,7.73
2022-11-15T20:28:13.646Z,7.74
2022-11-15T20:31:01.916Z,7.77
2022-11-15T20:33:49.527Z,7.78
2022-11-15T20:36:37.264Z,7.84
2022-11-15T20:39:25.415Z,7.91
2022-11-15T20:42:13.206Z,7.83
2022-11-15T20:45:02.048Z,7.80
2022-11-15T20:47:49.820Z,7.76
2022-11-15T20:50:44.608Z,7.75
2022-11-15T20:53:32.688Z,7.73
2022-11-15T20:56:22.337Z,7.68
2022-11-15T20:59:09.991Z,7.60
2022-11-15T21:01:57.849Z,7.65
2022-11-15T21:04:45.712Z,7.63
2022-11-15T21:07:33.547Z,7.55
2022-11-15T21:10:39.761Z,7.64
2022-11-15T21:13:27.574Z,7.60
2022-11-15T21:16:17.079Z,7.66
2022-11-15T21:19:05.900Z,7.64
2022-11-15T21:21:53.761Z,7.63
2022-11-15T21:24:41.703Z,7.47
2022-11-15T21:27:29.282Z,7.53
2022-11-15T21:30:17.314Z,7.46
2022-11-15T21:33:04.950Z,7.38
2022-11-15T21:35:52.774Z,7.39
2022-11-15T21:38:40.475Z,7.46
2022-11-15T21:41:28.293Z,7.62
2022-11-15T21:44:16.133Z,7.59
2022-11-15T21:47:03.836Z,7.55
2022-11-15T21:49:51.659Z,7.56
2022-11-15T21:52:39.293Z,7.60
2022-11-15T21:55:27.102Z,7.53
2022-11-15T21:58:14.814Z,7.55
2022-11-15T22:01:21.492Z,7.29
2022-11-15T22:04:09.930Z,7.52
2022-11-15T22:06:57.767Z,7.53
2022-11-15T22:09:45.437Z,7.55
2022-11-15T22:12:33.138Z,7.49
2022-11-15T22:15:21.088Z,7.37
2022-11-15T22:18:15.294Z,7.43
2022-11-15T22:21:05.664Z,7.48
2022-11-15T22:23:53.506Z,7.43
2022-11-15T22:26:41.317Z,7.44
2022-11-15T22:29:29.078Z,7.28
2022-11-15T22:32:16.736Z,7.25
2022-11-15T22:35:04.685Z,7.52
2022-11-15T22:37:53.008Z,7.55
2022-11-15T22:40:49.167Z,7.42
2022-11-15T22:43:37.289Z,7.47
2022-11-15T22:46:25.070Z,7.43
2022-11-15T22:49:12.768Z,7.43
2022-11-15T22:52:00.565Z,7.39
2022-11-15T22:54:48.226Z,7.41
2022-11-15T22:57:38.494Z,7.35
2022-11-15T23:00:26.315Z,7.41
2022-11-15T23:03:14.146Z,7.36
2022-11-15T23:06:06.887Z,7.37
2022-11-15T23:08:54.691Z,7.39
2022-11-15T23:12:00.793Z,7.11
2022-11-15T23:14:48.467Z,7.46
2022-11-15T23:17:36.200Z,7.24
2022-11-15T23:20:42.489Z,7.24
2022-11-15T23:23:30.891Z,7.27
2022-11-15T23:26:18.667Z,7.21
2022-11-15T23:29:08.606Z,7.17
2022-11-15T23:32:32.803Z,7.23
2022-11-15T23:35:20.669Z,7.31
2022-11-15T23:38:08.364Z,7.37
2022-11-15T23:40:56.083Z,7.30
2022-11-15T23:43:43.942Z,7.28
2022-11-15T23:46:31.784Z,7.23
2022-11-15T23:49:19.738Z,7.17
2022-11-15T23:52:07.406Z,7.13
2022-11-15T23:54:55.080Z,7.12
2022-11-15T23:57:42.770Z,7.16
